Time;durP1;ratioP1;P1;durP2;ratioP2;P2;SDS_P1;SDS_P2;PMS_P1;PMS_P2;Temp;Humidity;BMP_temperature;BMP_pressure;BME280_temperature;BME280_humidity;BME280_pressure;Samples;Min_cycle;Max_cycle;Signal;HPM_P1;HPM_P2
2021/12/09 00:01:43;;;;;;;102.72;42.28;;;;;;;-5.09;72.89;95082.72;5007823;28;20029;-81
2021/12/09 00:04:12;;;;;;;103.07;41.42;;;;;;;-5.11;73.68;95085.44;5007147;28;20506;-82
2021/12/09 00:06:38;;;;;;;124.03;46.15;;;;;;;-5.03;73.71;95094.63;5007666;28;20121;-82
2021/12/09 00:09:08;;;;;;;101.78;41.53;;;;;;;-4.96;73.00;95093.31;5008047;28;20143;-81
2021/12/09 00:11:43;;;;;;;103.95;40.40;;;;;;;-4.96;73.32;95104.63;5006989;28;20113;-81
2021/12/09 00:14:23;;;;;;;105.57;42.80;;;;;;;-4.90;72.92;95100.81;5005970;28;20558;-81
2021/12/09 00:16:48;;;;;;;103.88;41.90;;;;;;;-4.84;72.77;95091.75;5006137;28;20037;-82
2021/12/09 00:19:14;;;;;;;104.60;39.53;;;;;;;-4.79;72.76;95081.88;5007123;28;20022;-81
2021/12/09 00:21:39;;;;;;;104.10;41.38;;;;;;;-4.79;71.99;95086.25;5007390;28;20025;-81
2021/12/09 00:24:05;;;;;;;93.53;38.05;;;;;;;-4.80;71.98;95076.72;5005511;28;20076;-83
2021/12/09 00:26:30;;;;;;;79.13;36.35;;;;;;;-4.77;72.99;95076.53;5007503;28;20034;-82
2021/12/09 00:28:55;;;;;;;78.80;35.88;;;;;;;-4.72;73.02;95071.84;5006775;28;20565;-80
2021/12/09 00:31:21;;;;;;;83.18;35.63;;;;;;;-4.69;73.11;95063.81;5007385;28;20041;-80
2021/12/09 00:33:47;;;;;;;73.35;32.92;;;;;;;-4.57;71.76;95062.25;5005544;28;20035;-81
2021/12/09 00:36:16;;;;;;;83.45;34.72;;;;;;;-4.59;70.03;95056.25;5005740;28;20021;-80
2021/12/09 00:38:42;;;;;;;79.18;36.28;;;;;;;-4.72;70.84;95041.31;5005625;28;20117;-81
2021/12/09 00:41:13;;;;;;;89.75;36.95;;;;;;;-4.81;71.69;95054.09;5005428;28;20036;-81
2021/12/09 00:43:39;;;;;;;82.03;37.03;;;;;;;-4.86;71.63;95049.13;5006109;28;20459;-81
2021/12/09 00:46:04;;;;;;;100.97;39.65;;;;;;;-4.87;72.02;95045.66;5006574;28;20519;-82
2021/12/09 00:48:30;;;;;;;83.25;36.33;;;;;;;-4.69;72.13;95058.59;5005440;28;20101;-81
2021/12/09 00:50:56;;;;;;;87.43;36.65;;;;;;;-4.64;72.49;95064.38;5006492;28;20037;-82
2021/12/09 00:53:22;;;;;;;91.07;38.75;;;;;;;-4.55;73.12;95067.38;5005497;28;20069;-80
2021/12/09 00:55:47;;;;;;;93.72;36.85;;;;;;;-4.51;72.72;95063.63;5006716;28;20026;-81
2021/12/09 00:58:13;;;;;;;93.50;38.78;;;;;;;-4.53;71.87;95055.06;5005908;28;20424;-81
2021/12/09 01:00:39;;;;;;;86.90;37.60;;;;;;;-4.53;72.33;95058.50;5006040;28;20033;-81
2021/12/09 01:03:04;;;;;;;100.30;39.10;;;;;;;-4.51;72.62;95059.25;5011076;28;20041;-81
2021/12/09 01:05:29;;;;;;;87.97;37.92;;;;;;;-4.72;72.06;95061.38;5025533;28;20049;-80
2021/12/09 01:07:55;;;;;;;84.35;37.05;;;;;;;-4.59;72.38;95064.09;5024932;28;20029;-82
2021/12/09 01:10:21;;;;;;;83.18;36.05;;;;;;;-4.51;73.18;95071.50;5025250;28;20025;-80
2021/12/09 01:12:46;;;;;;;92.07;38.53;;;;;;;-4.48;72.95;95079.16;5007963;28;20036;-81
2021/12/09 01:15:12;;;;;;;94.97;39.13;;;;;;;-4.39;72.83;95083.84;5007733;28;20109;-80
2021/12/09 01:17:38;;;;;;;89.28;37.88;;;;;;;-4.27;72.22;95076.19;5024902;28;20037;-81
2021/12/09 01:20:05;;;;;;;94.05;38.40;;;;;;;-4.26;72.40;95070.00;5025187;28;20087;-81
2021/12/09 01:22:38;;;;;;;93.30;39.15;;;;;;;-4.24;72.75;95060.28;5026609;28;20120;-81
2021/12/09 01:25:04;;;;;;;90.57;38.58;;;;;;;-4.22;72.81;95068.84;5024820;28;20026;-80
2021/12/09 01:27:32;;;;;;;110.20;40.60;;;;;;;-4.06;72.43;95067.91;5026383;28;20568;-81
2021/12/09 01:29:58;;;;;;;103.28;38.03;;;;;;;-4.05;72.18;95059.97;5024507;28;20029;-81
2021/12/09 01:32:28;;;;;;;99.05;37.33;;;;;;;-3.98;72.54;95066.50;5026333;28;20025;-81
2021/12/09 01:34:54;;;;;;;103.22;38.10;;;;;;;-3.92;72.38;95067.91;5025032;28;20124;-82
2021/12/09 01:37:19;;;;;;;92.32;37.20;;;;;;;-3.85;71.85;95077.03;5026341;28;20526;-80
2021/12/09 01:39:46;;;;;;;103.60;37.35;;;;;;;-3.93;72.42;95071.44;5029984;28;20087;-80
2021/12/09 01:42:11;;;;;;;97.75;37.70;;;;;;;-3.94;72.25;95074.16;5029562;28;20439;-81
2021/12/09 01:44:37;;;;;;;87.53;36.15;;;;;;;-3.92;72.27;95060.03;5030516;28;20028;-83
2021/12/09 01:47:02;;;;;;;86.22;35.63;;;;;;;-3.85;72.08;95057.84;5028606;28;20029;-81
2021/12/09 01:49:28;;;;;;;93.38;35.90;;;;;;;-3.83;72.38;95049.88;5028619;28;20026;-83
2021/12/09 01:51:53;;;;;;;89.68;34.83;;;;;;;-3.77;72.38;95050.34;5029492;28;20056;-81
2021/12/09 01:54:19;;;;;;;88.00;36.30;;;;;;;-3.85;72.33;95050.84;5028416;28;20021;-81
2021/12/09 01:56:44;;;;;;;82.45;35.97;;;;;;;-3.77;72.63;95052.13;5028251;28;20057;-82
2021/12/09 01:59:10;;;;;;;81.63;34.75;;;;;;;-3.80;72.18;95054.94;5029569;28;20029;-80
2021/12/09 02:01:36;;;;;;;84.38;34.58;;;;;;;-3.78;71.62;95040.81;5030013;28;20026;-81
2021/12/09 02:04:02;;;;;;;88.32;36.22;;;;;;;-3.76;72.42;95036.31;5029201;28;20396;-83
2021/12/09 02:06:28;;;;;;;83.40;34.78;;;;;;;-3.73;72.26;95038.72;5018480;28;20898;-80
2021/12/09 02:08:54;;;;;;;81.40;35.30;;;;;;;-3.70;72.60;95036.84;5022566;28;20033;-82
2021/12/09 02:11:20;;;;;;;86.05;35.72;;;;;;;-3.68;72.28;95038.44;5034508;28;20036;-81
2021/12/09 02:13:46;;;;;;;84.85;35.80;;;;;;;-3.60;72.26;95041.41;5009213;28;20026;-82
2021/12/09 02:16:13;;;;;;;76.80;33.80;;;;;;;-3.56;72.26;95051.69;5017710;28;20109;-82
2021/12/09 02:18:38;;;;;;;84.95;35.83;;;;;;;-3.52;71.60;95040.03;5020452;28;20037;-82
2021/12/09 02:21:14;;;;;;;72.85;33.83;;;;;;;-3.56;71.48;95051.69;5025438;28;20045;-81
2021/12/09 02:23:42;;;;;;;79.38;34.83;;;;;;;-3.54;72.10;95060.28;5028690;28;20488;-80
2021/12/09 02:26:07;;;;;;;62.88;32.22;;;;;;;-3.51;72.43;95068.78;5027537;28;20530;-82
2021/12/09 02:28:33;;;;;;;74.50;35.42;;;;;;;-3.44;71.99;95073.63;5011546;28;20029;-81
2021/12/09 02:30:58;;;;;;;73.75;34.15;;;;;;;-3.52;73.00;95054.00;5028588;28;20542;-82
2021/12/09 02:33:24;;;;;;;83.82;35.17;;;;;;;-3.40;72.42;95064.66;5029195;28;20087;-81
2021/12/09 02:35:49;;;;;;;88.07;35.25;;;;;;;-3.37;72.58;95064.44;5023304;28;20503;-81
2021/12/09 02:38:15;;;;;;;85.00;37.00;;;;;;;-3.42;73.00;95062.13;5009825;28;20508;-81
2021/12/09 02:40:41;;;;;;;81.97;36.65;;;;;;;-3.40;73.17;95048.91;5013379;28;20598;-82
2021/12/09 02:43:08;;;;;;;79.75;36.72;;;;;;;-3.44;73.45;95048.25;5010845;28;20412;-81
2021/12/09 02:45:36;;;;;;;76.38;34.33;;;;;;;-3.39;73.36;95045.34;5015374;28;20412;-83
2021/12/09 02:48:02;;;;;;;86.63;35.20;;;;;;;-3.51;73.96;95049.59;5012347;28;20038;-81
2021/12/09 02:50:27;;;;;;;80.07;34.33;;;;;;;-3.52;74.06;95046.16;5015565;28;20032;-82
2021/12/09 02:52:53;;;;;;;79.60;37.25;;;;;;;-3.47;74.05;95049.28;5017548;28;20025;-81
2021/12/09 02:55:18;;;;;;;86.13;34.80;;;;;;;-3.44;73.85;95052.66;5010458;28;20033;-82
2021/12/09 02:57:43;;;;;;;85.32;35.70;;;;;;;-3.43;74.37;95049.09;5009453;28;20038;-82
2021/12/09 03:00:10;;;;;;;78.20;34.80;;;;;;;-3.42;73.55;95051.63;4991303;28;20041;-82
2021/12/09 03:02:35;;;;;;;80.53;35.10;;;;;;;-3.36;73.96;95045.97;5009042;28;20514;-81
2021/12/09 03:05:03;;;;;;;73.55;34.20;;;;;;;-3.28;74.15;95047.25;5007241;28;20585;-82
2021/12/09 03:07:35;;;;;;;83.35;35.40;;;;;;;-3.26;73.90;95048.84;5008879;28;20481;-81
2021/12/09 03:10:09;;;;;;;81.72;36.83;;;;;;;-3.25;73.70;95047.03;5006687;28;20109;-81
2021/12/09 03:12:35;;;;;;;82.60;36.30;;;;;;;-3.20;73.82;95057.22;5008810;28;20109;-81
2021/12/09 03:15:01;;;;;;;98.35;38.83;;;;;;;-3.07;73.60;95046.75;5009299;28;20141;-81
2021/12/09 03:17:27;;;;;;;86.32;34.97;;;;;;;-2.95;72.64;95052.97;5008207;28;20053;-81
2021/12/09 03:19:53;;;;;;;72.85;32.20;;;;;;;-2.97;72.87;95055.72;5008921;28;20108;-81
2021/12/09 03:22:19;;;;;;;68.40;30.98;;;;;;;-2.94;73.21;95060.75;5006981;28;20037;-81
2021/12/09 03:24:44;;;;;;;73.75;32.75;;;;;;;-2.91;73.08;95055.28;5008958;28;20022;-82
2021/12/09 03:27:10;;;;;;;78.30;34.78;;;;;;;-2.91;73.13;95055.28;5008139;28;20022;-82
2021/12/09 03:29:35;;;;;;;72.32;32.90;;;;;;;-2.79;72.90;95061.47;5008783;28;20547;-83
2021/12/09 03:32:03;;;;;;;72.38;32.15;;;;;;;-2.82;73.18;95058.25;5008288;28;20093;-82
2021/12/09 03:34:30;;;;;;;69.43;31.42;;;;;;;-2.81;73.38;95059.91;5007000;28;20126;-81
2021/12/09 03:36:56;;;;;;;67.93;31.60;;;;;;;-2.78;73.77;95054.44;5008559;28;20030;-81
2021/12/09 03:39:23;;;;;;;75.70;32.13;;;;;;;-2.80;73.79;95053.69;5006642;28;20508;-83
2021/12/09 03:41:52;;;;;;;75.35;33.15;;;;;;;-2.75;73.45;95054.25;5007447;28;20030;-81
2021/12/09 03:44:17;;;;;;;77.45;33.53;;;;;;;-2.77;73.30;95051.72;5007992;28;20504;-82
2021/12/09 03:46:43;;;;;;;73.93;32.83;;;;;;;-2.76;74.08;95042.06;5008619;28;20032;-81
2021/12/09 03:49:08;;;;;;;77.25;33.70;;;;;;;-2.70;73.19;95041.66;5006507;28;20030;-79
2021/12/09 03:51:35;;;;;;;80.40;34.53;;;;;;;-2.67;72.85;95040.59;5006622;28;20169;-84
2021/12/09 03:54:04;;;;;;;86.30;34.78;;;;;;;-2.67;73.25;95053.72;5007129;28;20030;-81
2021/12/09 03:56:30;;;;;;;80.05;34.53;;;;;;;-2.62;73.42;95054.25;5007148;28;20114;-81
2021/12/09 03:58:55;;;;;;;81.82;34.78;;;;;;;-2.57;73.12;95056.56;5007907;28;20054;-84
2021/12/09 04:01:21;;;;;;;88.57;36.90;;;;;;;-2.54;72.85;95064.22;5006986;28;20033;-81
2021/12/09 04:03:46;;;;;;;89.45;36.45;;;;;;;-2.53;72.78;95071.16;5008503;28;20575;-81
2021/12/09 04:06:11;;;;;;;82.28;36.08;;;;;;;-2.53;73.09;95074.63;5005716;28;20018;-83
2021/12/09 04:08:38;;;;;;;76.05;35.42;;;;;;;-2.50;72.58;95078.84;5008116;28;20561;-84
2021/12/09 04:11:03;;;;;;;82.32;36.20;;;;;;;-2.46;72.42;95069.78;5006978;28;20049;-85
2021/12/09 04:13:30;;;;;;;83.03;37.75;;;;;;;-2.49;72.68;95059.50;5006459;28;20022;-82
2021/12/09 04:15:55;;;;;;;82.25;35.65;;;;;;;-2.46;72.57;95056.66;5007266;28;20030;-82
2021/12/09 04:18:21;;;;;;;90.53;36.47;;;;;;;-2.49;72.79;95064.75;5007679;28;20551;-82
2021/12/09 04:20:46;;;;;;;85.18;36.35;;;;;;;-2.47;72.46;95062.88;5006755;28;20034;-84
2021/12/09 04:23:12;;;;;;;80.10;35.58;;;;;;;-2.44;72.37;95078.41;5005864;28;20034;-82
2021/12/09 04:25:37;;;;;;;84.35;36.30;;;;;;;-2.45;72.73;95078.53;5008310;28;20412;-81
2021/12/09 04:28:03;;;;;;;86.63;37.10;;;;;;;-2.47;73.14;95070.75;5006818;28;20029;-82
2021/12/09 04:30:29;;;;;;;86.35;38.00;;;;;;;-2.47;73.30;95073.38;5007428;28;20026;-82
2021/12/09 04:32:54;;;;;;;81.22;36.53;;;;;;;-2.42;72.61;95067.78;5006354;28;20034;-82
2021/12/09 04:35:20;;;;;;;84.32;36.65;;;;;;;-2.47;73.08;95069.91;5007752;28;20022;-83
2021/12/09 04:37:47;;;;;;;91.05;37.50;;;;;;;-2.45;72.53;95070.63;5007372;28;20021;-82
2021/12/09 04:40:12;;;;;;;86.45;36.50;;;;;;;-2.44;72.83;95067.91;5006655;28;20050;-82
2021/12/09 04:42:38;;;;;;;85.15;36.45;;;;;;;-2.36;72.83;95075.25;5007305;28;20188;-82
2021/12/09 04:45:05;;;;;;;89.90;37.25;;;;;;;-2.35;72.77;95076.91;5013037;28;20032;-81
2021/12/09 04:47:30;;;;;;;90.53;36.75;;;;;;;-2.38;72.92;95075.34;5012321;28;20045;-81
2021/12/09 04:49:55;;;;;;;86.15;36.88;;;;;;;-2.37;72.94;95077.03;5011365;28;20042;-82
2021/12/09 04:52:21;;;;;;;85.18;36.67;;;;;;;-2.37;72.73;95081.47;5008644;28;20041;-83
2021/12/09 04:54:46;;;;;;;103.80;39.50;;;;;;;-2.34;72.69;95089.13;5010884;28;20179;-81
2021/12/09 04:57:12;;;;;;;90.72;36.22;;;;;;;-2.31;72.88;95086.28;5008629;28;20073;-81
2021/12/09 04:59:37;;;;;;;102.30;39.42;;;;;;;-2.32;72.20;95086.38;5010047;28;20495;-82
2021/12/09 05:02:03;;;;;;;96.07;39.55;;;;;;;-2.28;72.61;95082.59;4991004;28;20040;-83
2021/12/09 05:04:28;;;;;;;96.43;38.15;;;;;;;-2.23;72.24;95085.75;5027139;28;20026;-82
2021/12/09 05:06:55;;;;;;;96.07;38.25;;;;;;;-2.25;72.43;95088.47;5013868;28;20037;-83
2021/12/09 05:09:20;;;;;;;106.40;38.95;;;;;;;-2.27;72.71;95087.75;5016208;28;20026;-82
2021/12/09 05:14:11;;;;;;;96.00;40.38;;;;;;;-2.37;72.98;95079.66;5014697;28;20030;-82
2021/12/09 05:16:37;;;;;;;87.20;38.10;;;;;;;-2.32;73.06;95075.88;4998916;28;20041;-82
2021/12/09 05:19:02;;;;;;;102.70;39.63;;;;;;;-2.26;73.03;95096.47;5022066;28;20029;-82
2021/12/09 05:21:36;;;;;;;96.35;38.28;;;;;;;-2.24;73.08;95095.41;5030120;28;20404;-81
2021/12/09 05:24:03;;;;;;;88.90;36.63;;;;;;;-2.22;73.40;95086.59;5024009;28;20458;-82
2021/12/09 05:26:34;;;;;;;100.50;39.70;;;;;;;-2.26;73.17;95085.97;5027509;28;20136;-82
2021/12/09 05:28:59;;;;;;;93.43;37.30;;;;;;;-2.25;73.46;95087.63;5028494;28;20105;-82
2021/12/09 05:34:10;;;;;;;76.35;34.47;;;;;;;-2.28;73.75;95087.84;5028662;28;20574;-81
2021/12/09 05:36:36;;;;;;;85.72;35.05;;;;;;;-2.27;74.09;95094.78;5026839;28;20034;-81
2021/12/09 05:39:03;;;;;;;88.82;38.70;;;;;;;-2.26;73.88;95096.47;5029320;28;20076;-83
2021/12/09 05:41:29;;;;;;;88.40;36.95;;;;;;;-2.19;73.89;95099.53;5009301;28;20040;-84
2021/12/09 05:43:54;;;;;;;83.70;36.47;;;;;;;-2.19;74.31;95099.53;5015818;28;20026;-83
2021/12/09 05:46:22;;;;;;;102.82;41.70;;;;;;;-2.13;74.75;95093.84;5027831;28;20037;-82
2021/12/09 05:48:49;;;;;;;92.82;39.50;;;;;;;-2.13;74.13;95099.91;5025186;28;20037;-78
2021/12/09 05:51:14;;;;;;;92.80;39.35;;;;;;;-2.06;74.20;95100.31;5009634;28;20126;-78
2021/12/09 05:53:39;;;;;;;102.05;41.78;;;;;;;-2.01;73.71;95100.84;5011495;28;20038;-78
2021/12/09 05:56:05;;;;;;;95.15;41.50;;;;;;;-1.95;73.05;95107.44;5027606;28;20083;-82
2021/12/09 05:58:31;;;;;;;99.95;43.08;;;;;;;-1.94;73.21;95118.81;5016853;28;20046;-78
2021/12/09 06:00:56;;;;;;;98.55;38.63;;;;;;;-1.77;71.68;95113.22;5007570;28;20163;-80
2021/12/09 06:03:22;;;;;;;88.00;37.13;;;;;;;-1.86;72.05;95087.56;5027554;28;20511;-78
2021/12/09 06:05:48;;;;;;;93.35;36.95;;;;;;;-1.83;71.69;95094.41;5029243;28;20087;-80
2021/12/09 06:08:13;;;;;;;84.93;36.78;;;;;;;-1.82;71.70;95090.84;5009343;28;20116;-79
2021/12/09 06:10:39;;;;;;;95.45;39.15;;;;;;;-2.06;72.53;95107.41;5010567;28;20163;-79
2021/12/09 06:13:04;;;;;;;102.72;39.47;;;;;;;-2.20;73.07;95108.34;5027540;28;20033;-79
2021/12/09 06:15:30;;;;;;;94.28;39.58;;;;;;;-2.21;73.32;95104.88;5026550;28;20044;-80
2021/12/09 06:17:55;;;;;;;101.38;38.28;;;;;;;-2.19;73.35;95110.84;5011309;28;20037;-79
2021/12/09 06:20:21;;;;;;;96.03;38.95;;;;;;;-2.13;73.33;95113.06;5026485;28;20494;-78
2021/12/09 06:22:46;;;;;;;86.90;36.92;;;;;;;-2.13;73.24;95112.22;5028763;28;20037;-79
2021/12/09 06:25:17;;;;;;;87.68;37.75;;;;;;;-2.05;73.17;95114.31;5026084;28;20455;-79
2021/12/09 06:27:43;;;;;;;99.72;39.22;;;;;;;-2.06;74.33;95128.41;5029651;28;20057;-78
2021/12/09 06:30:09;;;;;;;92.20;38.55;;;;;;;-1.97;73.95;95116.41;5028727;28;20037;-78
2021/12/09 06:32:35;;;;;;;91.97;38.30;;;;;;;-1.90;73.89;95117.63;5028995;28;20032;-78
2021/12/09 06:35:00;;;;;;;100.75;38.88;;;;;;;-1.93;73.95;95107.34;5030015;28;20025;-78
2021/12/09 06:37:26;;;;;;;94.28;38.30;;;;;;;-1.88;73.52;95123.63;5028340;28;20476;-80
2021/12/09 06:39:51;;;;;;;87.78;37.17;;;;;;;-1.83;73.91;95126.78;5029637;28;20022;-78
2021/12/09 06:42:17;;;;;;;85.00;36.33;;;;;;;-1.77;73.74;95128.13;5026876;28;20081;-80
2021/12/09 06:44:43;;;;;;;95.07;38.70;;;;;;;-1.67;73.52;95116.03;5027592;28;20044;-79
2021/12/09 06:47:09;;;;;;;95.60;37.20;;;;;;;-1.46;73.11;95118.06;5026835;28;20031;-80
2021/12/09 06:49:34;;;;;;;94.57;38.25;;;;;;;-1.32;72.16;95113.59;5028412;28;20029;-79
2021/12/09 06:52:00;;;;;;;91.32;37.92;;;;;;;-1.21;71.43;95104.94;5028311;28;20017;-79
2021/12/09 06:54:25;;;;;;;92.75;39.08;;;;;;;-1.28;72.29;95107.16;5028428;28;20025;-78
2021/12/09 06:56:50;;;;;;;97.93;39.45;;;;;;;-1.28;72.42;95108.00;5028882;28;20030;-77
2021/12/09 06:59:16;;;;;;;89.22;38.88;;;;;;;-1.29;71.87;95106.31;5027475;28;20048;-79
2021/12/09 07:01:41;;;;;;;88.82;39.00;;;;;;;-1.26;72.37;95106.09;5028002;28;20045;-78
2021/12/09 07:04:08;;;;;;;92.78;38.05;;;;;;;-1.19;71.93;95109.09;5027661;28;20049;-78
2021/12/09 07:06:34;;;;;;;96.28;38.28;;;;;;;-1.09;71.73;95105.78;5011077;28;20118;-80
2021/12/09 07:09:01;;;;;;;98.97;39.08;;;;;;;-1.03;70.27;95100.94;5026234;28;20026;-79
2021/12/09 07:11:26;;;;;;;86.63;39.88;;;;;;;-1.08;70.64;95108.31;5027711;28;20037;-78
2021/12/09 07:13:52;;;;;;;99.25;41.78;;;;;;;-1.12;70.46;95097.19;5027873;28;20026;-79
2021/12/09 07:16:17;;;;;;;97.38;39.10;;;;;;;-1.18;71.12;95097.66;5027382;28;20021;-82
2021/12/09 07:18:43;;;;;;;94.93;40.20;;;;;;;-1.19;71.57;95100.41;5028521;28;20025;-80
2021/12/09 07:21:08;;;;;;;106.18;41.60;;;;;;;-1.17;71.48;95098.47;5025685;28;20026;-80
2021/12/09 07:23:34;;;;;;;120.05;43.08;;;;;;;-1.26;72.35;95106.09;5028528;28;20036;-80
2021/12/09 07:26:00;;;;;;;102.82;43.85;;;;;;;-1.14;72.45;95095.59;5010090;28;20481;-78
2021/12/09 07:28:25;;;;;;;105.95;44.25;;;;;;;-1.07;71.88;95093.38;5026900;28;20088;-78
2021/12/09 07:30:51;;;;;;;102.30;44.35;;;;;;;-1.04;72.26;95098.41;5027106;28;20029;-79
2021/12/09 07:33:16;;;;;;;100.38;45.30;;;;;;;-1.07;72.06;95096.00;5027729;28;20025;-78
2021/12/09 07:35:43;;;;;;;102.93;43.10;;;;;;;-0.91;71.12;95091.28;5027925;28;20021;-80
2021/12/09 07:38:08;;;;;;;107.80;43.17;;;;;;;-0.95;71.78;95083.72;5026645;28;20453;-78
2021/12/09 07:40:34;;;;;;;111.10;43.33;;;;;;;-0.97;72.30;95089.13;5026953;28;20033;-79
2021/12/09 07:42:59;;;;;;;110.20;44.13;;;;;;;-1.01;72.85;95092.91;5025289;28;20408;-80
2021/12/09 07:45:25;;;;;;;99.85;40.83;;;;;;;-0.99;72.48;95096.28;5010599;28;20033;-79
2021/12/09 07:47:50;;;;;;;87.22;37.90;;;;;;;-1.04;72.94;95099.25;5009371;28;20449;-80
2021/12/09 07:50:18;;;;;;;85.72;36.65;;;;;;;-0.99;72.39;95098.91;5009321;28;20037;-79
2021/12/09 07:52:47;;;;;;;76.05;33.63;;;;;;;-1.12;73.15;95102.47;5010113;28;20107;-77
2021/12/09 07:55:12;;;;;;;71.90;33.30;;;;;;;-1.19;73.58;95095.13;5025186;28;20036;-79
2021/12/09 07:57:39;;;;;;;84.35;34.63;;;;;;;-1.13;73.94;95095.50;5026408;28;20025;-79
2021/12/09 08:00:06;;;;;;;92.35;38.28;;;;;;;-1.14;75.03;95083.31;5026328;28;20041;-78
2021/12/09 08:02:32;;;;;;;97.45;40.40;;;;;;;-1.07;74.77;95085.47;5026538;28;20033;-79
2021/12/09 08:04:57;;;;;;;92.00;39.40;;;;;;;-0.98;74.24;95086.59;5025136;28;20087;-78
2021/12/09 08:07:24;;;;;;;79.28;35.88;;;;;;;-0.75;72.91;95077.81;5026041;28;20476;-79
2021/12/09 08:09:50;;;;;;;66.50;31.92;;;;;;;-0.90;74.03;95071.88;5026944;28;20447;-79
2021/12/09 08:12:16;;;;;;;64.63;30.27;;;;;;;-0.83;73.96;95079.31;5031136;28;20029;-79
2021/12/09 08:14:41;;;;;;;47.55;22.92;;;;;;;-0.77;74.18;95074.44;5039168;28;20032;-80
2021/12/09 08:17:13;;;;;;;47.00;24.45;;;;;;;-0.69;73.78;95081.75;5037913;28;20026;-80
2021/12/09 08:19:39;;;;;;;48.45;23.48;;;;;;;-0.53;72.77;95091.13;5036047;28;20033;-80
2021/12/09 08:22:05;;;;;;;59.10;25.40;;;;;;;-0.59;72.60;95071.38;5026347;28;20100;-78
2021/12/09 08:24:30;;;;;;;54.67;24.65;;;;;;;-0.48;71.73;95075.81;5025924;28;20044;-78
2021/12/09 08:26:56;;;;;;;52.65;25.35;;;;;;;-0.55;72.58;95071.97;5026520;28;20026;-80
2021/12/09 08:29:21;;;;;;;54.08;25.70;;;;;;;-0.58;72.72;95080.13;5026590;28;20033;-79
2021/12/09 08:31:46;;;;;;;53.00;25.55;;;;;;;-0.66;73.78;95083.34;5026929;28;20304;-79
2021/12/09 08:34:12;;;;;;;59.72;26.52;;;;;;;-0.74;72.98;95083.88;5024509;28;20034;-80
2021/12/09 08:36:37;;;;;;;57.08;27.55;;;;;;;-0.67;73.56;95089.53;5027344;28;20086;-80
2021/12/09 08:39:03;;;;;;;60.35;29.15;;;;;;;-0.76;74.03;95070.03;5025817;28;20025;-78
2021/12/09 08:41:29;;;;;;;60.65;28.90;;;;;;;-0.80;74.91;95066.78;5025520;28;20080;-79
2021/12/09 08:43:54;;;;;;;58.28;28.65;;;;;;;-0.67;73.91;95073.75;5024601;28;20033;-79
2021/12/09 08:46:19;;;;;;;65.90;30.08;;;;;;;-0.48;73.25;95075.81;5026289;28;20025;-83
2021/12/09 08:48:46;;;;;;;61.28;29.30;;;;;;;-0.27;71.74;95075.97;5026173;28;20048;-82
2021/12/09 08:51:12;;;;;;;67.35;30.58;;;;;;;-0.38;73.40;95076.78;5008317;28;20036;-80
2021/12/09 08:53:37;;;;;;;65.80;28.58;;;;;;;-0.29;72.33;95062.03;5025671;28;20483;-78
2021/12/09 08:56:03;;;;;;;66.85;30.73;;;;;;;-0.38;72.89;95057.50;5024248;28;20029;-80
2021/12/09 08:58:30;;;;;;;68.43;30.83;;;;;;;-0.33;73.08;95049.22;5008974;28;20100;-81
2021/12/09 09:00:59;;;;;;;64.65;30.55;;;;;;;-0.34;73.03;95052.84;5025926;28;20040;-83
2021/12/09 09:03:24;;;;;;;55.78;26.08;;;;;;;-0.09;71.62;95054.38;5009406;28;20021;-80
2021/12/09 09:05:50;;;;;;;71.20;29.45;;;;;;;-0.21;72.37;95056.19;5008478;28;20041;-81
2021/12/09 09:08:16;;;;;;;65.32;29.40;;;;;;;-0.25;72.74;95044.22;5024810;28;20036;-81
2021/12/09 09:10:42;;;;;;;64.00;29.45;;;;;;;-0.18;73.16;95045.38;5026278;28;20033;-81
2021/12/09 09:13:08;;;;;;;62.55;27.63;;;;;;;-0.10;73.36;95030.78;5024423;28;20166;-80
2021/12/09 09:15:36;;;;;;;67.72;29.35;;;;;;;-0.07;72.82;95044.56;5025369;28;20408;-82
2021/12/09 09:18:01;;;;;;;62.38;27.50;;;;;;;0.03;71.25;95034.13;5008223;28;20037;-79
2021/12/09 09:20:28;;;;;;;69.43;30.63;;;;;;;-0.05;72.32;95041.81;5026864;28;20427;-81
2021/12/09 09:22:53;;;;;;;66.07;31.27;;;;;;;0.03;70.95;95013.03;5008036;28;20036;-82
2021/12/09 09:25:22;;;;;;;83.13;31.77;;;;;;;-0.06;71.56;95004.06;5008488;28;20029;-79
2021/12/09 09:27:48;;;;;;;77.45;34.65;;;;;;;-0.07;71.84;95023.47;5026560;28;20117;-80
2021/12/09 09:30:17;;;;;;;75.43;34.30;;;;;;;-0.18;71.83;95007.66;5008391;28;20029;-82
2021/12/09 09:32:43;;;;;;;74.25;32.90;;;;;;;-0.18;72.49;95032.22;5025439;28;20599;-81
2021/12/09 09:35:09;;;;;;;84.50;35.38;;;;;;;-0.10;73.32;95001.78;5008017;28;20029;-80
2021/12/09 09:37:34;;;;;;;75.40;34.47;;;;;;;-0.04;73.07;95007.41;5025582;28;20034;-84
2021/12/09 09:40:00;;;;;;;82.85;34.55;;;;;;;0.08;72.59;95010.03;5024155;28;20131;-80
2021/12/09 09:45:13;;;;;;;84.20;35.90;;;;;;;0.26;72.24;95012.16;5010551;28;20029;-80
2021/12/09 09:47:38;;;;;;;92.07;37.60;;;;;;;0.27;72.33;95004.13;5008082;28;20030;-80
2021/12/09 09:50:05;;;;;;;85.97;35.95;;;;;;;0.41;71.77;94994.22;5024900;28;20432;-79
2021/12/09 09:52:30;;;;;;;94.28;38.25;;;;;;;0.56;71.53;94982.44;5023782;28;20052;-79
2021/12/09 09:54:56;;;;;;;88.15;37.75;;;;;;;0.57;71.65;94984.09;5008585;28;20439;-78
2021/12/09 09:57:22;;;;;;;83.68;37.13;;;;;;;0.68;70.64;94975.28;5025321;28;20194;-79
2021/12/09 09:59:48;;;;;;;75.55;34.78;;;;;;;0.64;70.22;94973.03;5026288;28;20045;-79
2021/12/09 10:02:13;;;;;;;88.28;36.33;;;;;;;0.66;70.35;94984.31;4995058;28;20420;-82
2021/12/09 10:04:47;;;;;;;77.03;35.17;;;;;;;0.77;69.54;94960.50;5027681;28;20025;-81
2021/12/09 10:07:17;;;;;;;78.15;35.63;;;;;;;0.71;70.24;94963.66;5028523;28;20025;-78
2021/12/09 10:09:42;;;;;;;73.00;34.50;;;;;;;0.79;70.96;94963.81;5026710;28;20032;-80
2021/12/09 10:12:08;;;;;;;71.82;32.22;;;;;;;0.88;70.84;94962.25;5030265;28;20033;-79
2021/12/09 10:14:34;;;;;;;70.43;31.52;;;;;;;0.81;68.76;94954.00;5027045;28;20408;-80
2021/12/09 10:17:10;;;;;;;68.47;32.65;;;;;;;0.67;70.61;94955.16;5028189;28;20030;-78
2021/12/09 10:19:38;;;;;;;69.13;30.98;;;;;;;0.65;70.92;94953.59;5028741;28;20052;-80
2021/12/09 10:22:11;;;;;;;69.00;31.30;;;;;;;0.61;69.75;94940.63;5028855;28;20121;-79
2021/12/09 10:24:37;;;;;;;74.90;30.65;;;;;;;0.56;70.39;94955.19;5011470;28;20500;-79
2021/12/09 10:27:04;;;;;;;60.10;27.25;;;;;;;0.52;70.76;94945.84;5028039;28;20447;-80
2021/12/09 10:29:37;;;;;;;57.55;26.95;;;;;;;0.44;70.17;94947.31;5028315;28;20034;-78
2021/12/09 10:32:04;;;;;;;;;;;;;;;0.39;70.66;94948.69;5028880;28;20564;-80
2021/12/09 10:34:37;;;;;;;50.17;21.50;;;;;;;0.40;70.33;94948.56;5029161;28;19913;-78
2021/12/09 10:37:11;;;;;;;56.45;24.83;;;;;;;0.33;70.51;94944.72;5029016;28;20037;-79
2021/12/09 10:39:36;;;;;;;58.17;24.95;;;;;;;0.32;71.31;94922.78;5028370;28;20092;-81
2021/12/09 10:42:12;;;;;;;55.40;25.60;;;;;;;0.46;70.49;94934.00;5027953;28;20030;-79
2021/12/09 10:44:45;;;;;;;54.47;24.08;;;;;;;0.40;71.46;94924.81;5026481;28;20041;-79
2021/12/09 10:47:21;;;;;;;54.97;25.15;;;;;;;0.41;70.65;94929.09;5029162;28;20026;-80
2021/12/09 10:50:02;;;;;;;60.60;25.63;;;;;;;0.33;70.86;94926.25;5026881;28;20037;-80
2021/12/09 10:52:43;;;;;;;58.72;27.25;;;;;;;0.31;71.39;94920.25;5027138;28;20025;-77
2021/12/09 10:55:18;;;;;;;58.28;28.13;;;;;;;0.45;70.47;94925.25;5029797;28;20038;-81
2021/12/09 10:57:44;;;;;;;62.53;27.08;;;;;;;0.43;71.69;94934.25;5011847;28;20115;-78
2021/12/09 11:00:24;;;;;;;54.60;25.80;;;;;;;0.53;70.89;94937.81;5027738;28;20196;-79
2021/12/09 11:03:23;;;;;;;56.53;25.83;;;;;;;0.64;70.68;94920.25;5028949;28;20040;-81
2021/12/09 11:05:59;;;;;;;61.22;25.23;;;;;;;0.74;70.35;94915.88;5027693;28;20140;-80
2021/12/09 11:08:30;;;;;;;57.42;26.85;;;;;;;0.78;70.31;94909.38;5027640;28;20029;-83
2021/12/09 11:11:21;;;;;;;62.70;28.55;;;;;;;0.85;69.73;94897.31;5026032;28;20133;-80
2021/12/09 11:13:53;;;;;;;62.65;28.02;;;;;;;0.88;69.63;94890.09;5027460;28;20041;-80
2021/12/09 11:16:24;;;;;;;69.18;30.58;;;;;;;1.00;69.22;94904.88;5027099;28;20033;-81
2021/12/09 11:18:51;;;;;;;73.32;32.45;;;;;;;0.91;70.10;94908.31;5027213;28;20029;-80
2021/12/09 11:21:20;;;;;;;72.57;32.58;;;;;;;1.08;68.84;94897.16;5010865;28;20159;-78
2021/12/09 11:23:55;;;;;;;77.20;32.80;;;;;;;1.10;68.67;94907.59;5027163;28;20029;-82